x

Buoy B01 - Western Maine Shelf (44030) Wave Buoy

1:04 - Thu 19th Jan 2017 All times are EST. -5 hours from GMT.

  • Sig Wave height 5.2ft
  • Peak Period 8s
  • Wind
    4mph, 7mph gusts
  • Sea Temp 44°f
  • Luft Temp 35°f
  • Sea Pressure 1013.7mb
  • Buoy B01 - Western Maine Shelf
  • Buoy B01 - Western Maine Shelf

More Historic Weather Station data

Upgrade to MSW Pro to gain access to the past 30 days of data for over 8000 Wavebouys and Weather Stations around the globe.

Join Pro

Comparision Forecast

View Surf forecast
   
Do 01/19 1:04 5ft 8s 4 7 mph 1013.7mb 44f 35f
12:04 6ft 8s 4 9 mph 1014.2mb 43f 34f
11:04 6ft 8s 7 9 mph 1015.2mb 43f 33f
10:04 6ft 8s 4 7 mph 1015.8mb 43f 33f
9:04 5.5ft 8s 4 9 mph 1015.6mb 43f 32f
8:04 6ft 8s 7 9 mph 1015.7mb 43f 31f
7:04 6ft 8s 4 7 mph 1015.4mb 43f 31f
6:04 6.5ft 8s 4 7 mph 1015.4mb 42f 31f
5:04 6ft 8s 9 11 mph 1015.3mb 42f 30f
4:04 7ft 8s 11 13 mph 1015.6mb 42f 30f
3:04 6ft 8s 11 13 mph 1015.7mb 42f 30f
2:04 6ft 8s 16 18 mph 1016mb 42f 31f
1:04 7ft 8s 16 18 mph 1016mb 42f 30f
12:04 7ft 8s 18 20 mph 1016.7mb 42f 29f
Mi 01/18 11:04 8.5ft 8s 18 22 mph 1016.8mb 42f 30f
10:04 9ft 8s 16 20 mph 1016.6mb 42f 31f
9:04 10ft 8s 20 25 mph 1017.2mb 42f 33f
8:04 9.5ft 8s 16 25 mph 1017.8mb 42f 34f
7:04 10ft 8s 16 20 mph 1017.8mb 42f 38f
6:04 10ft 11s 18 22 mph 1017.3mb 42f 39f
5:04 9ft 8s 20 25 mph 1016.6mb 42f 38f
4:04 11ft 8s 20 25 mph 1016.3mb 42f 38f
3:04 9.5ft 8s 20 25 mph 1016.1mb 42f 38f
2:04 9.5ft 8s 20 27 mph 1015.8mb 42f 38f
1:04 9.5ft 8s 20 25 mph 1015.5mb 42f 38f
12:04 7ft 6s 20 27 mph 1015.9mb 42f 38f
11:04 7ft 6s 20 25 mph 1016.3mb 42f 38f
10:04 6.5ft 6s 20 22 mph 1017.4mb 42f 38f
9:04 5ft 5s 20 22 mph 1017.5mb 42f 38f
8:04 5ft 5s 20 25 mph 1017.2mb 42f 38f
7:04 4.5ft 5s 20 22 mph 1017.1mb 42f 38f
6:04 5.5ft 6s 18 25 mph 1017.3mb 42f 37f
5:04 5ft 6s 22 29 mph 1017.1mb 42f 36f
4:04 5ft 5s 22 27 mph 1017.3mb 42f 36f
3:04 5.5ft 5s 22 27 mph 1018.2mb 42f 35f
2:04 5ft 5s 20 25 mph 1019.1mb 42f 36f
1:04 4.5ft 5s 18 22 mph 1019.9mb 42f 35f
12:04 4ft 5s 20 22 mph 1020.6mb 42f 35f
Di 01/17 11:04 4ft 4s 20 25 mph 1020.7mb 42f 36f
10:04 3ft 4s 22 25 mph 1020.9mb 42f 39f
9:04 3ft 4s 18 22 mph 1021.8mb 42f 39f
8:04 2.5ft 4s 18 20 mph 1022.5mb 42f 39f
7:04 2.5ft 3s 16 20 mph 1022.9mb 42f 39f
6:04 2.5ft 4s 16 20 mph 1022.8mb 42f 39f
5:04 2ft 4s 16 20 mph 1022.8mb 42f 39f
4:04 2ft 4s 13 16 mph 1022.9mb 42f 39f
3:04 1.6ft 4s 11 13 mph 1022.9mb 42f 39f
2:04 1.6ft 4s 13 16 mph 1022.7mb 42f 39f
1:04 2ft 4s 13 16 mph 1022.7mb 42f 39f
12:04 2ft 3s 13 16 mph 1023.7mb 42f 38f
11:04 1.3ft 3s 13 16 mph 1023.9mb 42f 39f
10:04 1.3ft 5s 13 16 mph 1024.5mb 42f 39f
9:04 1ft 8s 9 11 mph 1024.4mb 42f 38f
8:04 1ft 2s 11 13 mph 1023.8mb 42f 36f
7:04 1ft 5s 9 11 mph 1022.8mb 42f 36f
6:04 1.3ft 5s 9 11 mph 1022.3mb 42f 36f
5:04 1.3ft 5s 7 9 mph 1021.5mb 42f 35f
4:04 2ft 4s 7 9 mph 1021.6mb 42f 35f
3:04 2.5ft 4s 16 18 mph 1021.2mb 42f 36f
2:04 2ft 5s 18 22 mph 1020.6mb 42f 37f
1:04 2.5ft 5s 18 22 mph 1020.3mb 42f 37f
12:04 2.5ft 5s 20 25 mph 1020.4mb 42f 37f
Mo 01/16 11:04 2.5ft 5s 20 25 mph 1021mb 42f 37f
10:04 2.5ft 4s 20 25 mph 1021.6mb 41f 38f
9:04 2.5ft 4s 18 22 mph 1022mb 41f 38f
8:04 2.5ft 4s 20 25 mph 1022.3mb 41f 38f
7:04 3.5ft 5s 20 25 mph 1022.8mb 42f 39f
6:04 3.5ft 4s 22 27 mph 1022.8mb 42f 40f
5:04 3.5ft 5s 22 25 mph 1022.8mb 42f 39f
4:04 3.5ft 5s 20 25 mph 1023.1mb 42f 39f
3:04 2.5ft 4s 18 25 mph 1023.3mb 42f 38f
2:04 3.5ft 4s 22 27 mph 1023.7mb 42f 37f
1:04 3ft 4s 20 25 mph 1024.3mb 42f 35f
12:04 3ft 4s 20 25 mph 1025.6mb 42f 34f
11:04 1.6ft 3s 20 22 mph 1027.5mb 42f 33f
10:04 1.3ft 3s 18 20 mph 1028.9mb 42f 30f
9:04 1.3ft 2s 13 16 mph 1029.5mb 42f 28f
8:04 1.3ft 11s 11 13 mph 1029.5mb 42f 28f
7:04 1ft 5s 11 13 mph 1029.9mb 42f 28f
6:04 1.3ft 4s 9 11 mph 1029.6mb 42f 28f
5:04 1.3ft 4s 9 11 mph 1029.9mb 43f 28f
4:04 1.3ft 11s 9 11 mph 1029.7mb 42f 28f
3:04 1.6ft 11s 7 9 mph 1029.6mb 42f 29f
2:04 1.6ft 11s 2 4 mph 1029.8mb 42f 29f
1:04 1.3ft 4s 2 4 mph 1029.6mb 42f 29f
12:04 1.3ft 4s 4 7 mph 1029.3mb 42f 29f
So 01/15 11:04 1.6ft 4s 7 9 mph 1029.1mb 42f 29f
10:04 1.6ft 4s 9 11 mph 1029mb 42f 29f
9:04 2.5ft 11s 11 13 mph 1029mb 42f 30f
8:04 1.6ft 3s 13 18 mph 1028.6mb 42f 30f